DONNÉES MÉTÉO

HIER
Time Temp. Dewp. Hum. Directi La vitess Wind gust Bar. 1h Prec. 24h Prec.
00:03 1.3 0.4 94 264 2.5 5 994.1 0.0000 0.0000
00:23 1 0.3 95 248 1.9 3.1 993.9 0.0000 0.0000
00:33 0.9 0.2 95 246 2.2 3.1 993.9 0.0000 0.0000
00:44 0.9 0.3 96 247 2.2 2.8 994.1 0.0000 0.0000
00:53 0.8 0.2 96 252 1.9 3.3 994.1 0.0000 0.0000
01:13 0.9 0.3 96 260 1.9 3.1 994.5 0.0000 0.0000
01:24 0.9 0.3 96 259 1.7 2.5 994.4 0.0000 0.0000
01:34 0.9 0.3 96 264 1.7 2.5 994.5 0.0000 0.0000
01:43 0.9 0.3 96 270 1.4 2.5 994.7 0.0000 0.0000
01:54 0.9 0.3 96 270 1.4 2.2 994.9 0.0000 0.0000
02:04 0.8 0.2 96 270 1.4 2.5 994.9 0.0000 0.0000
02:14 0.8 0.2 96 258 1.4 2.2 995.1 0.0000 0.0000
02:24 0.8 0.2 96 252 2.2 2.8 995.2 0.0000 0.0000
02:34 0.7 0.1 96 258 1.7 2.5 995.2 0.0000 0.0000
02:44 0.7 0.1 96 262 1.7 2.8 995.2 0.0000 0.0000
02:54 0.7 0.1 96 270 1.4 2.5 995.4 0.0000 0.0000
03:05 0.7 0.1 96 257 1.4 2.2 995.5 0.0000 0.0000
03:15 0.7 0.1 96 270 1.1 1.9 995.5 0.0000 0.0000
03:24 0.6 0.2 97 257 1.7 2.2 995.6 0.0000 0.0000
03:34 0.6 0.2 97 252 1.9 3.1 995.8 0.0000 0.0000
03:45 0.7 0.3 97 258 1.9 2.8 995.8 0.0000 0.0000
03:55 0.8 0.4 97 261 1.9 3.1 996 0.0000 0.0000
04:05 0.8 0.4 97 264 1.9 3.3 996.1 0.0000 0.0000
04:15 0.9 0.5 97 265 1.9 3.1 996.1 0.0000 0.0000
04:25 0.9 0.3 96 264 1.9 3.1 996.2 0.0000 0.0000
04:35 0.9 0.3 96 262 1.9 3.1 996.3 0.0000 0.0000
04:45 0.9 0.3 96 264 1.7 2.8 996.4 0.0000 0.0000
04:56 0.9 0.3 96 254 1.9 2.8 996.5 0.0000 0.0000
05:05 0.8 0.2 96 270 1.9 3.6 996.6 0.0000 0.0000
05:15 0.9 0.3 96 264 1.4 2.5 996.6 0.0000 0.0000
05:26 0.8 0.2 96 259 1.7 2.5 996.7 0.0000 0.0000
05:36 0.8 0.2 96 255 1.9 2.8 996.7 0.0000 0.0000
05:46 0.7 0.1 96 250 1.9 2.8 996.9 0.0000 0.0000
05:55 0.7 0.1 96 252 1.9 3.1 997 0.0000 0.0000
06:06 0.6 0 96 250 2.2 2.8 997.1 0.1010 0.1000
06:16 0.6 0 96 261 1.9 2.8 997.2 0.1010 0.1000
06:26 0.5 -0.1 96 254 1.9 2.8 997.2 0.1010 0.1000
06:36 0.5 -0.2 95 249 1.9 2.8 997.2 0.1010 0.1000
06:46 0.4 -0.1 96 247 1.9 2.8 997.3 0.1010 0.1000
06:56 0.4 -0.3 95 251 1.7 2.8 997.4 0.0000 0.1000
07:06 0.3 -0.4 95 252 1.4 2.2 997.5 0.0000 0.1000
07:17 0.2 -0.4 95 264 1.4 2.2 997.5 0.0000 0.1000
07:26 0.1 -0.5 95 258 1.1 1.7 997.6 0.0000 0.1000
07:36 0.1 -0.5 95 256 1.4 2.5 997.7 0.0000 0.1000
07:47 0 -0.6 95 270 1.1 2.2 997.8 0.0000 0.1000
07:57 -0.1 -0.7 95 260 1.4 1.9 998 0.0000 0.1000
08:07 -0.1 -0.7 95 262 1.4 2.5 998.2 0.0000 0.1000
08:16 -0.2 -0.8 95 260 1.1 1.9 998.2 0.0000 0.1000
08:27 -0.2 -0.7 96 270 1.4 2.2 998.3 0.0000 0.1000
08:37 -0.3 -0.8 96 248 1.7 2.5 998.5 0.0000 0.1000
08:47 -0.3 -0.8 96 249 1.7 2.5 998.7 0.0000 0.1000
08:57 -0.3 -0.8 96 243 1.9 3.1 998.7 0.0000 0.1000
09:08 -0.3 -0.8 96 251 1.4 2.8 998.8 0.0000 0.1000
09:17 -0.3 -0.8 96 247 1.4 2.5 998.8 0.0000 0.1000
09:27 -0.3 -0.8 96 238 1.7 2.8 998.9 0.0000 0.1000
09:38 -0.2 -0.7 96 243 2.2 3.6 998.9 0.0000 0.1000
09:48 -0.1 -0.5 97 239 2.5 3.6 999 0.0000 0.1000
09:58 0.1 -0.3 97 249 1.7 2.8 998.9 0.0000 0.1000
10:08 0.2 -0.2 97 253 1.7 2.5 999.1 0.0000 0.1000
10:18 0.3 -0.1 97 250 1.7 2.8 999.2 0.0000 0.1000
10:28 0.4 0 97 252 1.7 2.5 999.1 0.0000 0.1000
10:38 0.6 0.2 97 256 1.9 3.1 999.1 0.0000 0.1000
10:49 0.7 0.3 97 248 1.9 3.1 999.1 0.0000 0.1000
10:58 0.8 0.4 97 256 2.5 3.3 999.1 0.1010 0.2000
11:08 1 0.6 97 260 2.2 3.3 999 0.1010 0.2000
11:18 1.2 0.8 97 264 2.8 3.9 999.1 0.1010 0.2000
11:29 1.4 0.8 96 260 2.2 3.3 999.1 0.1010 0.2000
11:39 1.4 0.8 96 270 2.5 3.9 999.1 0.1010 0.2000
11:48 1.5 0.9 96 254 2.2 3.6 999.2 0.1010 0.3000
12:00 1.6 1 96 259 2.8 3.9 999.3 0.3030 0.5000
12:11 1.7 1.1 96 262 2.5 4.2 999.1 0.4040 0.6000
12:21 1.8 1.2 96 251 2.5 4.4 999 0.5050 0.7000
12:31 1.9 1.2 95 256 3.1 5 998.9 0.6060 0.8000
12:40 1.9 1.2 95 258 2.2 3.3 998.9 0.6060 0.9000
12:51 1.9 1.2 95 264 3.1 3.9 999 0.6060 1.0000
13:01 1.9 1 94 257 2.8 3.9 999 0.6060 1.1000
13:11 1.9 1 94 256 2.5 3.6 998.9 0.5050 1.1000
13:21 1.9 1 94 258 2.2 3.3 998.7 0.4040 1.2000
13:32 2 1.1 94 270 2.5 4.4 998.5 0.4040 1.3000
13:41 2 1.1 94 285 2.8 4.4 998.3 0.3030 1.3000
13:51 2 1 93 263 2.5 3.6 998.2 0.3030 1.3000
14:02 2.1 1.1 93 288 2.5 4.2 998 0.2020 1.3000
14:12 2.1 1.1 93 289 2.2 3.6 997.9 0.1010 1.3000
14:22 2.2 1.2 93 284 2.2 3.9 997.8 0.1010 1.3000
14:32 2.2 1.2 93 282 1.9 3.1 997.6 0.1010 1.4000
14:42 2.3 1.3 93 290 1.4 2.5 997.4 0.2020 1.5000
14:52 2.5 1.3 92 281 1.9 3.3 997.3 0.2020 1.5000
15:02 2.5 1.3 92 290 1.4 2.5 997.3 0.3030 1.6000
15:13 2.5 1.3 92 284 1.4 2.2 997.2 0.3030 1.6000
15:23 2.6 1.4 92 288 1.4 2.5 997.1 0.3030 1.6000
15:32 2.5 1.3 92 279 1.9 2.8 997 0.3030 1.7000
15:42 2.5 1.2 91 286 1.9 3.3 996.9 0.2020 1.7000
15:53 2.5 1.2 91 275 2.2 3.1 996.8 0.2020 1.7000
16:03 2.5 1.2 91 281 2.2 3.6 996.7 0.1010 1.7000
16:13 2.5 1.2 91 282 1.9 3.1 996.6 0.1010 1.7000
16:23 2.5 1.2 91 279 2.2 3.1 996.6 0.1010 1.7000
16:33 2.5 1.2 91 278 1.9 3.1 996.5 0.0000 1.7000
16:43 2.5 1.2 91 286 2.2 3.9 996.3 0.1010 1.8000
16:53 2.5 1 90 275 2.2 3.3 996.2 0.1010 1.8000
17:04 2.5 1 90 287 2.5 4.7 996.1 0.1010 1.8000
17:13 2.4 0.9 90 305 2.8 4.4 996 0.1010 1.8000
17:23 2.4 0.9 90 295 2.5 4.4 996 0.1010 1.8000
17:34 2.3 0.8 90 300 2.5 4.4 995.8 0.1010 1.8000
17:44 2.3 0.8 90 308 2.8 4.4 995.7 0.0000 1.8000
17:54 2.3 0.8 90 307 2.8 4.7 995.5 0.0000 1.8000
18:04 2.2 0.7 90 311 2.2 4.4 995.3 0.1010 1.9000
18:15 2 0.7 91 322 1.9 4.4 995.2 0.3030 2.1000
18:26 1.9 0.6 91 305 1.9 3.9 995.1 0.3030 2.1000
18:36 1.8 0.6 92 300 1.7 3.9 995 0.3030 2.1000
18:46 1.8 0.8 93 311 1.7 3.6 994.9 0.3030 2.1000
18:56 1.8 0.8 93 321 1.9 4.4 994.8 0.3030 2.2000
19:06 1.8 0.8 93 320 1.9 3.9 994.7 0.1010 2.2000
19:16 1.7 0.7 93 292 1.4 3.9 994.7 0.2020 2.3000
19:26 1.6 0.6 93 326 1.7 3.9 994.5 0.2020 2.3000
19:37 1.5 0.5 93 270 1.4 2.8 994.4 0.3030 2.4000
19:46 1.3 0.4 94 292 1.4 2.8 994.3 0.2020 2.4000
19:56 1.2 0.3 94 299 1.7 3.1 994.2 0.3030 2.5000
20:07 1.1 0.2 94 286 1.7 3.6 994.1 0.2020 2.5000
20:17 1 0.3 95 286 1.7 3.3 994.1 0.2020 2.5000
20:27 1 0.3 95 289 1.7 3.6 994 0.3030 2.7000
20:36 1 0.3 95 270 1.4 3.6 994 0.4040 2.8000
20:47 1 0.4 96 278 1.7 3.3 994 0.4040 2.9000
20:57 1 0.4 96 270 1.7 2.5 993.9 0.6060 3.1000
21:07 1 0.4 96 288 1.7 3.6 993.8 0.7070 3.2000
21:17 1.1 0.5 96 276 1.7 3.3 993.8 0.7070 3.3000
21:27 1.1 0.5 96 285 1.4 2.8 993.9 0.6060 3.3000
21:37 1.2 0.6 96 283 1.7 3.1 993.9 0.4040 3.3000
21:47 1.1 0.5 96 265 1.7 2.8 993.9 0.4040 3.4000
21:58 1.1 0.5 96 262 1.4 2.2 993.9 0.4040 3.5000
22:08 1.2 0.6 96 253 1.9 3.1 993.9 0.3030 3.5000
22:17 1.3 0.9 97 270 1.7 3.9 993.9 0.2020 3.5000
22:28 1.4 1 97 289 1.7 3.6 993.9 0.2020 3.5000
22:38 1.5 1.1 97 263 1.7 2.8 993.9 0.2020 3.5000
22:48 1.5 1.1 97 270 1.9 4.7 993.9 0.0000 3.5000
22:58 1.6 1.2 97 270 1.7 4.2 993.9 0.1010 3.6000
23:08 1.6 1.2 97 250 1.9 3.1 994 0.1010 3.6000
23:18 1.6 1.2 97 251 2.2 3.1 994 0.1010 3.6000
23:28 1.6 1.2 97 257 2.2 3.3 994 0.1010 3.6000
23:38 1.7 1.3 97 252 2.2 3.1 994.1 0.1010 3.6000
23:49 1.7 1.3 97 255 2.2 3.9 994.1 0.0000 3.6000
23:58 1.7 1.3 97 266 2.2 3.3 994.1 0.0000

SATISTIQUES DU JOUR

2021-01-24
TEMPÉRATURE
MOYEN
1.2
MAXI
2.6
15:23
MINI
-0.3
08:37
PRESSION
MOYEN
996.4
MAXI
999.3
12:00
MINI
993.8
21:07
POINT DE ROSÉE
MOYEN
0.5
MAXI
1.4
15:23
MINI
-0.8
08:16
HUMIDITÉ
MOYEN
95
MAXI
97
03:24
MINI
90
16:53
LA VITESSE DU VENT
MOYEN
1.9
MAXI
3.1
12:31
WIND GUST
MOYEN
3.2
MAXI
5.0
00:03
DIRECTION DU VENT
PREVAILING
W
84.4%
N
0.0
NE
0.0
E
0.0
SE
0.0
S
0.0
SW
5.7
W
84.4
NW
9.9
PRÉCIPITATIONS
RAIN HOUR
0.7
RAIN DAY
3.6
TEMPÉRATURE (°C)
MINI
-0.3
MAXI
2.6
MOYEN
1.2
PRESSION (hpa)
MINI
993.8
MAXI
999.3
MOYEN
996.4
DEVICE